Time;durP1;ratioP1;P1;durP2;ratioP2;P2;SDS_P1;SDS_P2;PMS_P1;PMS_P2;Temp;Humidity;BMP_temperature;BMP_pressure;BME280_temperature;BME280_humidity;BME280_pressure;Samples;Min_cycle;Max_cycle;Signal;HPM_P1;HPM_P2
2023/05/25 00:01:58;;;;;;;10.13;3.60;;;10.10;99.90;;;;;;5051629;28;20418;-70
2023/05/25 00:04:25;;;;;;;11.23;3.60;;;10.20;99.90;;;;;;5051622;28;20433;-70
2023/05/25 00:06:51;;;;;;;7.13;4.67;;;10.20;99.90;;;;;;5051800;28;20420;-69
2023/05/25 00:09:17;;;;;;;7.67;4.63;;;10.30;99.90;;;;;;5051357;28;20427;-69
2023/05/25 00:11:43;;;;;;;9.07;4.83;;;10.30;99.90;;;;;;5051622;28;20420;-70
2023/05/25 00:14:09;;;;;;;8.03;4.23;;;10.30;99.90;;;;;;5051480;28;20612;-70
2023/05/25 00:16:39;;;;;;;6.20;3.77;;;10.30;99.90;;;;;;5051606;28;20416;-70
2023/05/25 00:19:05;;;;;;;7.00;4.03;;;10.30;99.90;;;;;;5051127;28;20908;-69
2023/05/25 00:21:33;;;;;;;6.40;3.23;;;10.20;99.90;;;;;;5051538;28;20507;-69
2023/05/25 00:23:59;;;;;;;6.90;4.10;;;10.20;99.90;;;;;;5051464;28;20440;-70
2023/05/25 00:26:24;;;;;;;5.23;3.70;;;10.20;99.90;;;;;;5051458;28;20422;-70
2023/05/25 00:28:50;;;;;;;8.43;4.23;;;10.10;99.90;;;;;;5051121;28;20507;-69
2023/05/25 00:31:16;;;;;;;8.20;5.00;;;10.10;99.90;;;;;;5051331;28;20166;-70
2023/05/25 00:33:41;;;;;;;8.90;4.27;;;10.10;99.90;;;;;;5051283;28;20611;-70
2023/05/25 00:36:07;;;;;;;5.17;3.50;;;10.10;99.90;;;;;;5051346;28;20174;-70
2023/05/25 00:38:33;;;;;;;9.67;4.80;;;10.10;99.90;;;;;;5051195;28;20543;-70
2023/05/25 00:40:59;;;;;;;10.57;5.03;;;10.20;99.90;;;;;;5051411;28;20474;-70
2023/05/25 00:43:25;;;;;;;5.40;3.67;;;10.20;99.90;;;;;;5033468;28;20271;-70
2023/05/25 00:45:50;;;;;;;8.30;4.17;;;10.30;99.90;;;;;;5053020;28;20249;-70
2023/05/25 00:48:16;;;;;;;7.13;3.80;;;10.40;99.90;;;;;;5054597;28;20189;-68
2023/05/25 00:50:44;;;;;;;10.33;5.00;;;10.50;99.90;;;;;;5054803;28;20573;-68
2023/05/25 00:53:11;;;;;;;5.10;3.93;;;10.60;99.90;;;;;;5054623;28;20447;-68
2023/05/25 00:55:49;;;;;;;6.50;3.87;;;10.70;99.90;;;;;;5054924;28;20770;-68
2023/05/25 00:58:19;;;;;;;7.57;4.00;;;10.70;99.90;;;;;;5054472;28;20427;-68
2023/05/25 01:00:48;;;;;;;5.53;3.50;;;10.50;99.90;;;;;;5054623;28;20455;-69
2023/05/25 01:03:20;;;;;;;7.77;4.60;;;10.50;99.90;;;;;;5054412;28;20848;-68
2023/05/25 01:05:47;;;;;;;6.03;3.70;;;10.40;99.90;;;;;;5054786;28;20760;-68
2023/05/25 01:08:16;;;;;;;9.17;4.50;;;10.30;99.90;;;;;;5054212;28;20424;-68
2023/05/25 01:10:42;;;;;;;7.57;4.53;;;10.20;99.90;;;;;;5054488;28;20451;-68
2023/05/25 01:13:08;;;;;;;6.77;4.60;;;10.20;99.90;;;;;;5054206;28;20500;-69
2023/05/25 01:15:36;;;;;;;9.77;4.97;;;10.10;99.90;;;;;;5054382;28;20424;-68
2023/05/25 01:18:02;;;;;;;7.20;4.63;;;10.00;99.90;;;;;;5054462;28;20424;-69
2023/05/25 01:20:30;;;;;;;6.10;4.33;;;9.90;99.90;;;;;;5054111;28;20460;-68
2023/05/25 01:23:11;;;;;;;7.00;4.20;;;9.90;99.90;;;;;;5054077;28;20443;-68
2023/05/25 01:25:50;;;;;;;6.87;5.53;;;9.90;99.90;;;;;;5054236;28;20788;-68
2023/05/25 01:28:28;;;;;;;12.33;4.80;;;9.80;99.90;;;;;;5053854;28;20466;-68
2023/05/25 01:30:56;;;;;;;6.10;3.80;;;9.80;99.90;;;;;;5054133;28;20469;-68
2023/05/25 01:33:22;;;;;;;6.00;4.20;;;9.80;99.90;;;;;;5054182;28;20505;-68
2023/05/25 01:35:48;;;;;;;8.07;5.20;;;9.70;99.90;;;;;;5054051;28;20949;-69
2023/05/25 01:38:13;;;;;;;8.80;4.77;;;9.70;99.90;;;;;;5053525;28;20459;-69
2023/05/25 01:40:39;;;;;;;8.80;4.80;;;9.50;99.90;;;;;;5053691;28;20221;-68
2023/05/25 01:43:04;;;;;;;7.13;4.00;;;9.50;99.90;;;;;;5053786;28;20197;-68
2023/05/25 01:45:31;;;;;;;6.87;4.90;;;9.50;99.90;;;;;;5053706;28;20219;-68
2023/05/25 01:48:02;;;;;;;10.93;5.00;;;9.50;99.90;;;;;;5053850;28;20638;-68
2023/05/25 01:50:50;;;;;;;8.53;3.80;;;9.50;99.90;;;;;;5053496;28;20420;-69
2023/05/25 01:53:21;;;;;;;6.67;4.10;;;9.50;99.90;;;;;;5053573;28;20447;-68
2023/05/25 01:55:58;;;;;;;12.83;5.77;;;9.50;99.90;;;;;;5053729;28;20424;-69
2023/05/25 01:58:25;;;;;;;7.43;4.63;;;9.40;99.90;;;;;;5052535;28;20435;-68
2023/05/25 02:00:51;;;;;;;8.33;4.73;;;9.50;99.90;;;;;;5053353;28;20526;-68
2023/05/25 02:03:18;;;;;;;19.13;5.30;;;9.50;99.90;;;;;;5053413;28;20435;-68
2023/05/25 02:05:45;;;;;;;7.93;5.00;;;9.40;99.90;;;;;;5053355;28;20424;-68
2023/05/25 02:08:10;;;;;;;9.87;5.70;;;9.30;99.90;;;;;;5053139;28;20416;-68
2023/05/25 02:10:36;;;;;;;8.87;5.00;;;9.30;99.90;;;;;;5053200;28;20469;-69
2023/05/25 02:13:01;;;;;;;5.70;3.90;;;9.30;99.90;;;;;;5053111;28;20205;-68
2023/05/25 02:15:32;;;;;;;8.80;4.47;;;9.20;99.90;;;;;;5053148;28;20185;-69
2023/05/25 02:17:59;;;;;;;6.00;5.17;;;9.20;99.90;;;;;;5053213;28;20178;-68
2023/05/25 02:20:26;;;;;;;7.40;5.30;;;9.00;99.90;;;;;;5053066;28;20475;-68
2023/05/25 02:22:52;;;;;;;13.57;5.50;;;9.00;99.90;;;;;;5052999;28;20444;-68
2023/05/25 02:25:17;;;;;;;10.00;4.83;;;9.00;99.90;;;;;;5053123;28;20800;-68
2023/05/25 02:27:43;;;;;;;8.00;4.83;;;9.00;99.90;;;;;;5053004;28;20204;-68
2023/05/25 02:30:09;;;;;;;6.93;4.80;;;9.00;99.90;;;;;;5052631;28;20173;-68
2023/05/25 02:32:35;;;;;;;5.30;4.23;;;9.00;99.90;;;;;;5052789;28;20239;-68
2023/05/25 02:35:00;;;;;;;8.77;5.23;;;9.00;99.90;;;;;;5052894;28;20428;-68
2023/05/25 02:37:26;;;;;;;8.50;5.23;;;8.90;99.90;;;;;;5052968;28;20178;-69
2023/05/25 02:39:52;;;;;;;7.43;4.67;;;8.90;99.90;;;;;;5052433;28;20702;-68
2023/05/25 02:42:18;;;;;;;11.30;5.27;;;8.90;99.90;;;;;;5052662;28;20189;-68
2023/05/25 02:44:47;;;;;;;9.70;4.73;;;8.90;99.90;;;;;;5052627;28;20544;-68
2023/05/25 02:47:14;;;;;;;8.10;4.13;;;9.00;99.90;;;;;;5052581;28;20173;-68
2023/05/25 02:49:40;;;;;;;10.80;6.20;;;9.00;99.90;;;;;;5051979;28;20420;-68
2023/05/25 02:52:05;;;;;;;9.17;5.47;;;9.00;99.90;;;;;;5052473;28;20477;-69
2023/05/25 02:54:31;;;;;;;5.70;5.20;;;9.10;99.90;;;;;;5052514;28;20173;-68
2023/05/25 02:56:56;;;;;;;8.50;4.83;;;9.00;99.90;;;;;;5052402;28;20182;-68
2023/05/25 02:59:23;;;;;;;11.57;4.93;;;8.80;99.90;;;;;;5052024;28;20213;-68
2023/05/25 03:01:49;;;;;;;8.40;5.00;;;8.70;99.90;;;;;;5052360;28;20264;-68
2023/05/25 03:04:15;;;;;;;7.80;4.80;;;8.70;99.90;;;;;;5052272;28;20877;-68
2023/05/25 03:06:40;;;;;;;6.43;4.43;;;8.60;99.90;;;;;;5052381;28;20244;-68
2023/05/25 03:09:06;;;;;;;9.50;5.03;;;8.60;99.90;;;;;;5051892;28;20177;-68
2023/05/25 03:11:31;;;;;;;7.60;5.30;;;8.60;99.90;;;;;;5052367;28;20646;-68
2023/05/25 03:13:57;;;;;;;8.60;4.50;;;8.50;99.90;;;;;;5052032;28;20685;-68
2023/05/25 03:16:23;;;;;;;10.80;5.20;;;8.50;99.90;;;;;;5052160;28;20169;-68
2023/05/25 03:18:48;;;;;;;8.50;5.23;;;8.50;99.90;;;;;;5051742;28;20176;-68
2023/05/25 03:21:14;;;;;;;6.60;4.77;;;8.50;99.90;;;;;;5052250;28;20170;-69
2023/05/25 03:23:39;;;;;;;9.70;5.40;;;8.50;99.90;;;;;;5052018;28;20231;-68
2023/05/25 03:26:05;;;;;;;10.30;4.30;;;8.50;99.90;;;;;;5034225;28;20220;-68
2023/05/25 03:28:30;;;;;;;8.23;5.43;;;8.40;99.90;;;;;;5051679;28;20563;-68
2023/05/25 03:30:56;;;;;;;7.10;5.43;;;8.30;99.90;;;;;;5034084;28;20178;-68
2023/05/25 03:33:22;;;;;;;9.07;6.13;;;8.20;99.90;;;;;;5052137;28;20232;-68
2023/05/25 03:35:47;;;;;;;14.30;6.07;;;8.20;99.90;;;;;;5052004;28;20219;-69
2023/05/25 03:38:13;;;;;;;10.43;5.60;;;8.30;99.90;;;;;;5051622;28;20276;-68
2023/05/25 03:40:38;;;;;;;11.83;4.70;;;8.40;99.90;;;;;;5034077;28;20208;-68
2023/05/25 03:43:04;;;;;;;12.27;5.93;;;8.40;99.90;;;;;;5051553;28;20197;-68
2023/05/25 03:45:29;;;;;;;9.47;5.80;;;8.30;99.90;;;;;;5051740;28;20301;-68
2023/05/25 03:47:55;;;;;;;5.57;5.07;;;8.20;99.90;;;;;;5051953;28;20170;-68
2023/05/25 03:50:21;;;;;;;11.77;5.60;;;8.20;99.90;;;;;;5051704;28;20173;-69
2023/05/25 03:52:46;;;;;;;12.00;6.17;;;8.20;99.90;;;;;;5051685;28;20528;-68
2023/05/25 03:55:14;;;;;;;10.50;5.70;;;8.30;99.90;;;;;;5033904;28;20228;-68
2023/05/25 03:57:40;;;;;;;5.90;5.30;;;8.30;99.90;;;;;;5051694;28;20252;-69
2023/05/25 04:00:07;;;;;;;8.10;4.40;;;8.30;99.90;;;;;;5051278;28;20452;-69
2023/05/25 04:02:33;;;;;;;5.30;4.80;;;8.30;99.90;;;;;;5051507;28;20448;-68
2023/05/25 04:04:59;;;;;;;6.30;5.50;;;8.30;99.90;;;;;;5051635;28;20416;-69
2023/05/25 04:07:26;;;;;;;9.10;5.50;;;8.40;99.90;;;;;;5051586;28;20216;-68
2023/05/25 04:09:52;;;;;;;5.77;4.77;;;8.40;99.90;;;;;;5051284;28;20162;-68
2023/05/25 04:12:17;;;;;;;8.50;5.57;;;8.50;99.90;;;;;;5051385;28;20550;-69
2023/05/25 04:14:43;;;;;;;9.00;5.53;;;8.60;99.90;;;;;;5051552;28;20264;-69
2023/05/25 04:17:08;;;;;;;5.70;5.20;;;8.70;99.90;;;;;;5051533;28;20264;-68
2023/05/25 04:19:34;;;;;;;11.40;5.70;;;8.90;99.90;;;;;;5051332;28;20197;-69
2023/05/25 04:21:59;;;;;;;8.30;5.37;;;9.10;99.90;;;;;;5055146;28;20642;-69
2023/05/25 04:24:26;;;;;;;8.23;4.93;;;9.20;99.90;;;;;;5055267;28;20166;-69
2023/05/25 04:26:52;;;;;;;9.20;4.80;;;9.40;99.90;;;;;;5055288;28;20635;-69
2023/05/25 04:29:17;;;;;;;8.70;4.80;;;9.50;99.90;;;;;;5054964;28;20422;-68
2023/05/25 04:31:44;;;;;;;10.03;5.37;;;9.50;99.90;;;;;;5055490;28;20182;-69
2023/05/25 04:34:10;;;;;;;7.93;5.33;;;9.60;99.90;;;;;;5055158;28;20876;-68
2023/05/25 04:36:37;;;;;;;9.73;5.20;;;9.80;99.90;;;;;;5055282;28;20429;-69
2023/05/25 04:39:04;;;;;;;11.80;6.20;;;9.90;99.90;;;;;;5054725;28;20177;-69
2023/05/25 04:41:30;;;;;;;6.33;5.13;;;9.90;99.90;;;;;;5055020;28;20424;-69
2023/05/25 04:43:56;;;;;;;12.03;7.13;;;10.00;99.90;;;;;;5054864;28;20434;-69
2023/05/25 04:46:22;;;;;;;10.07;6.57;;;10.00;99.90;;;;;;5055106;28;20162;-69
2023/05/25 04:48:47;;;;;;;7.53;5.70;;;10.10;99.90;;;;;;5054633;28;20412;-69
2023/05/25 04:51:13;;;;;;;9.13;5.30;;;10.20;99.90;;;;;;5054880;28;20796;-69
2023/05/25 04:53:38;;;;;;;6.10;5.50;;;10.30;99.90;;;;;;5054694;28;20189;-68
2023/05/25 04:56:04;;;;;;;7.83;5.77;;;10.40;99.90;;;;;;5054752;28;20169;-69
2023/05/25 04:58:30;;;;;;;7.83;6.27;;;10.50;99.90;;;;;;5054357;28;20166;-69
2023/05/25 05:00:55;;;;;;;9.53;6.17;;;10.50;99.90;;;;;;5054688;28;20566;-69
2023/05/25 05:03:21;;;;;;;8.50;6.70;;;10.60;99.90;;;;;;5054491;28;20432;-69
2023/05/25 05:05:46;;;;;;;9.17;5.83;;;10.80;99.90;;;;;;5054582;28;20174;-68
2023/05/25 05:08:12;;;;;;;6.57;5.30;;;11.00;99.90;;;;;;5054329;28;20170;-69
2023/05/25 05:10:38;;;;;;;10.57;6.57;;;11.20;99.90;;;;;;5054391;28;20177;-69
2023/05/25 05:13:03;;;;;;;14.53;7.93;;;11.30;99.90;;;;;;5054644;28;20216;-71
2023/05/25 05:15:29;;;;;;;9.23;5.93;;;11.30;99.90;;;;;;5054549;28;20178;-71
2023/05/25 05:17:55;;;;;;;10.27;6.13;;;11.40;99.90;;;;;;5054369;28;20170;-70
2023/05/25 05:20:20;;;;;;;6.40;5.70;;;11.50;99.90;;;;;;5053958;28;21026;-70
2023/05/25 05:22:46;;;;;;;9.30;5.47;;;11.80;99.90;;;;;;5054164;28;20198;-70
2023/05/25 05:25:11;;;;;;;7.67;5.37;;;11.90;99.90;;;;;;5054258;28;20252;-70
2023/05/25 05:27:37;;;;;;;11.23;7.70;;;12.00;99.90;;;;;;5054060;28;20223;-70
2023/05/25 05:30:03;;;;;;;9.73;5.70;;;12.20;99.90;;;;;;5053773;28;20188;-70
2023/05/25 05:32:28;;;;;;;11.03;6.80;;;12.10;99.90;;;;;;5052760;28;20285;-70
2023/05/25 05:34:54;;;;;;;15.20;6.83;;;12.60;99.90;;;;;;5054176;28;20507;-71
2023/05/25 05:37:20;;;;;;;9.83;7.10;;;12.40;99.90;;;;;;5053988;28;20300;-71
2023/05/25 05:39:45;;;;;;;10.00;6.50;;;12.50;99.90;;;;;;5053559;28;20224;-70
2023/05/25 05:42:11;;;;;;;9.43;6.30;;;12.60;99.90;;;;;;5053679;28;20177;-70
2023/05/25 05:44:36;;;;;;;13.27;6.63;;;12.70;99.90;;;;;;5053825;28;20654;-70
2023/05/25 05:47:02;;;;;;;8.87;5.97;;;12.80;99.90;;;;;;5053740;28;20168;-69
2023/05/25 05:49:28;;;;;;;8.30;6.40;;;12.80;99.90;;;;;;5053549;28;20731;-70
2023/05/25 05:51:54;;;;;;;10.77;6.50;;;13.00;99.90;;;;;;5053580;28;20260;-70
2023/05/25 05:54:20;;;;;;;10.40;6.50;;;13.10;99.90;;;;;;5053567;28;20586;-70
2023/05/25 05:56:45;;;;;;;9.57;6.50;;;13.30;99.90;;;;;;5053473;28;20180;-71
2023/05/25 05:59:11;;;;;;;16.73;6.70;;;13.30;99.90;;;;;;5052905;28;20694;-70
2023/05/25 06:01:37;;;;;;;6.87;6.30;;;13.30;99.90;;;;;;5053664;28;20205;-69
2023/05/25 06:04:04;;;;;;;10.27;7.20;;;13.30;99.90;;;;;;5053428;28;20200;-70
2023/05/25 06:06:33;;;;;;;12.00;7.00;;;13.40;99.90;;;;;;5053579;28;20789;-71
2023/05/25 06:09:00;;;;;;;8.33;6.63;;;13.50;99.90;;;;;;5053041;28;20913;-70
2023/05/25 06:11:25;;;;;;;12.60;7.03;;;13.50;99.90;;;;;;5053251;28;20776;-70
2023/05/25 06:13:51;;;;;;;12.33;6.60;;;13.70;99.90;;;;;;5053133;28;20448;-70
2023/05/25 06:16:18;;;;;;;9.97;7.00;;;14.30;99.90;;;;;;5053405;28;20174;-69
2023/05/25 06:18:43;;;;;;;11.67;7.10;;;14.10;99.90;;;;;;5052992;28;20197;-70
2023/05/25 06:21:09;;;;;;;11.80;7.27;;;14.30;99.90;;;;;;5052987;28;20898;-69
2023/05/25 06:23:34;;;;;;;11.20;6.07;;;14.50;99.90;;;;;;5053020;28;20193;-70
2023/05/25 06:26:04;;;;;;;14.03;8.70;;;14.50;99.90;;;;;;5052940;28;20176;-70
2023/05/25 06:28:30;;;;;;;11.87;8.93;;;14.60;99.90;;;;;;5052752;28;20248;-71
2023/05/25 06:30:55;;;;;;;11.63;7.03;;;14.60;99.90;;;;;;5052978;28;20431;-69
2023/05/25 06:33:22;;;;;;;10.47;6.67;;;14.60;99.90;;;;;;5051142;28;20258;-70
2023/05/25 06:35:48;;;;;;;13.80;7.67;;;14.70;99.90;;;;;;5052577;28;20642;-70
2023/05/25 06:38:13;;;;;;;7.10;6.40;;;14.80;99.90;;;;;;5052434;28;20427;-70
2023/05/25 06:40:39;;;;;;;15.43;7.57;;;15.00;99.90;;;;;;5052637;28;20189;-69
2023/05/25 06:43:04;;;;;;;8.20;7.33;;;14.90;99.90;;;;;;5052271;28;20204;-69
2023/05/25 06:45:30;;;;;;;13.07;7.40;;;15.10;99.90;;;;;;5051973;28;20177;-70
2023/05/25 06:47:56;;;;;;;10.07;6.70;;;15.20;99.90;;;;;;5046273;28;20181;-69
2023/05/25 06:50:22;;;;;;;12.17;6.70;;;15.20;99.90;;;;;;5033787;28;20177;-70
2023/05/25 06:52:47;;;;;;;10.77;6.90;;;15.30;99.90;;;;;;5051213;28;20256;-70
2023/05/25 06:55:13;;;;;;;9.80;6.87;;;15.40;99.90;;;;;;5052275;28;20174;-70
2023/05/25 06:57:39;;;;;;;9.63;7.07;;;15.60;99.90;;;;;;5052340;28;20193;-70
2023/05/25 07:00:07;;;;;;;12.50;7.60;;;15.60;99.90;;;;;;5052089;28;20220;-70
2023/05/25 07:02:33;;;;;;;7.60;6.80;;;15.90;99.90;;;;;;5052395;28;20457;-70
2023/05/25 07:04:59;;;;;;;8.10;7.30;;;16.00;99.90;;;;;;5052298;28;20759;-70
2023/05/25 07:07:25;;;;;;;13.20;8.03;;;16.20;99.90;;;;;;5052276;28;20412;-70
2023/05/25 07:09:50;;;;;;;12.00;6.87;;;16.40;99.90;;;;;;5051846;28;20538;-70
2023/05/25 07:12:16;;;;;;;9.63;7.27;;;16.20;99.90;;;;;;5052356;28;20647;-70
2023/05/25 07:14:41;;;;;;;9.60;7.20;;;16.20;99.90;;;;;;5052176;28;20178;-69
2023/05/25 07:17:07;;;;;;;8.90;7.77;;;16.40;99.90;;;;;;5051865;28;20256;-70
2023/05/25 07:19:32;;;;;;;11.73;7.80;;;16.40;99.90;;;;;;5051709;28;20220;-70
2023/05/25 07:21:58;;;;;;;8.93;7.67;;;16.30;99.90;;;;;;5052112;28;20844;-70
2023/05/25 07:24:23;;;;;;;11.10;7.60;;;16.20;99.90;;;;;;5051623;28;20227;-69
2023/05/25 07:26:49;;;;;;;13.07;7.43;;;16.30;99.90;;;;;;5052207;28;20166;-70
2023/05/25 07:29:14;;;;;;;14.63;7.50;;;16.30;99.90;;;;;;5051798;28;20170;-69
2023/05/25 07:31:40;;;;;;;13.67;8.17;;;16.40;99.90;;;;;;5051899;28;20176;-69
2023/05/25 07:34:05;;;;;;;11.03;7.80;;;16.30;99.90;;;;;;5051271;28;20203;-70
2023/05/25 07:36:31;;;;;;;9.20;7.77;;;16.20;99.90;;;;;;5051893;28;20545;-70
2023/05/25 07:38:57;;;;;;;12.35;8.45;;;16.10;99.90;;;;;;5051450;28;20540;-70
2023/05/25 07:41:22;;;;;;;11.87;7.23;;;16.30;99.90;;;;;;5051823;28;20168;-70
2023/05/25 07:43:48;;;;;;;11.97;8.40;;;16.50;99.90;;;;;;5051441;28;20295;-70
2023/05/25 07:46:15;;;;;;;14.90;7.73;;;16.80;99.90;;;;;;5051731;28;20531;-70
2023/05/25 07:48:41;;;;;;;11.70;7.80;;;16.90;99.90;;;;;;5051428;28;20257;-71
2023/05/25 07:51:07;;;;;;;12.53;7.83;;;17.00;99.90;;;;;;5051725;28;20496;-69
2023/05/25 07:53:32;;;;;;;11.07;7.53;;;17.20;99.90;;;;;;5051514;28;20288;-69
2023/05/25 07:55:58;;;;;;;13.60;7.90;;;17.40;99.90;;;;;;5053481;28;20267;-69
2023/05/25 07:58:23;;;;;;;9.93;8.43;;;17.60;99.90;;;;;;5055553;28;20711;-69
2023/05/25 08:00:49;;;;;;;12.10;8.33;;;17.60;99.90;;;;;;5055699;28;20255;-70
2023/05/25 08:03:15;;;;;;;13.00;8.00;;;17.70;99.90;;;;;;5055619;28;20243;-70
2023/05/25 08:05:42;;;;;;;15.00;9.23;;;17.60;99.90;;;;;;5055673;28;20557;-70
2023/05/25 08:08:09;;;;;;;11.57;8.00;;;17.50;99.90;;;;;;5055506;28;20420;-70
2023/05/25 08:10:34;;;;;;;16.60;8.63;;;17.50;99.90;;;;;;5055535;28;20830;-69
2023/05/25 08:13:00;;;;;;;12.40;8.53;;;17.50;99.90;;;;;;5055185;28;20550;-69
2023/05/25 08:15:26;;;;;;;12.20;9.63;;;17.30;99.90;;;;;;5055074;28;20260;-68
2023/05/25 08:17:51;;;;;;;10.87;8.20;;;17.40;99.90;;;;;;5055468;28;20174;-68
2023/05/25 08:20:17;;;;;;;11.20;8.23;;;17.60;99.90;;;;;;5055059;28;20681;-68
2023/05/25 08:22:42;;;;;;;15.63;8.10;;;17.60;99.90;;;;;;5055132;28;20264;-70
2023/05/25 08:25:08;;;;;;;12.03;8.50;;;17.50;99.90;;;;;;5055118;28;20184;-69
2023/05/25 08:27:34;;;;;;;15.60;8.70;;;17.60;99.90;;;;;;5055396;28;20549;-69
2023/05/25 08:30:00;;;;;;;8.93;7.37;;;17.80;99.90;;;;;;5055022;28;20420;-68
2023/05/25 08:32:26;;;;;;;12.07;9.27;;;18.00;99.90;;;;;;5055045;28;20443;-69
2023/05/25 08:34:51;;;;;;;12.60;8.83;;;18.20;99.90;;;;;;5054528;28;20422;-69
2023/05/25 08:37:18;;;;;;;11.63;8.63;;;18.50;99.90;;;;;;5055098;28;20200;-69
2023/05/25 08:39:44;;;;;;;14.13;9.00;;;18.60;99.90;;;;;;5054624;28;20225;-69
2023/05/25 08:42:10;;;;;;;12.27;8.83;;;18.60;99.90;;;;;;5054966;28;20451;-69
2023/05/25 08:44:36;;;;;;;10.47;8.73;;;18.80;99.90;;;;;;5054909;28;20173;-69
2023/05/25 08:47:06;;;;;;;11.20;9.23;;;18.90;99.90;;;;;;5054911;28;20166;-70
2023/05/25 08:49:37;;;;;;;13.23;8.90;;;19.10;99.90;;;;;;5047539;28;20455;-68
2023/05/25 08:52:03;;;;;;;13.40;8.53;;;19.00;99.90;;;;;;5054500;28;20943;-69
2023/05/25 08:54:36;;;;;;;11.10;8.67;;;19.20;99.90;;;;;;5054497;28;20424;-70
2023/05/25 08:57:23;;;;;;;14.97;9.77;;;19.50;99.90;;;;;;5054606;28;20426;-69
2023/05/25 09:00:14;;;;;;;9.80;8.00;;;19.70;99.90;;;;;;5054277;28;20447;-69
2023/05/25 09:03:05;;;;;;;16.70;9.30;;;19.90;99.90;;;;;;5054425;28;20456;-70
2023/05/25 09:05:33;;;;;;;11.37;9.07;;;19.90;99.90;;;;;;5054599;28;20790;-69
2023/05/25 09:07:59;;;;;;;9.83;8.63;;;20.30;99.90;;;;;;5054103;28;20427;-70
2023/05/25 09:10:26;;;;;;;14.93;9.80;;;20.40;99.90;;;;;;5054118;28;21036;-70
2023/05/25 09:12:52;;;;;;;14.57;8.03;;;21.00;99.90;;;;;;5054283;28;20467;-68
2023/05/25 09:15:18;;;;;;;10.63;9.30;;;21.40;97.80;;;;;;5054429;28;20424;-69
2023/05/25 09:17:43;;;;;;;12.40;8.20;;;21.40;97.40;;;;;;5053989;28;20477;-70
2023/05/25 09:20:13;;;;;;;12.10;8.23;;;21.50;96.70;;;;;;5053768;28;20605;-69
2023/05/25 09:22:40;;;;;;;11.93;8.10;;;21.80;96.20;;;;;;5053696;28;20205;-69
2023/05/25 09:25:07;;;;;;;16.17;9.70;;;22.00;95.60;;;;;;5051359;28;20420;-69
2023/05/25 09:27:36;;;;;;;14.40;9.10;;;22.10;94.50;;;;;;5054049;28;20905;-70
2023/05/25 09:30:03;;;;;;;10.13;9.13;;;22.50;93.80;;;;;;5053708;28;20431;-69
2023/05/25 09:32:29;;;;;;;10.10;8.17;;;22.40;92.90;;;;;;5053597;28;20440;-69
2023/05/25 09:34:56;;;;;;;10.83;8.17;;;22.60;92.70;;;;;;5053963;28;20431;-70
2023/05/25 09:37:22;;;;;;;11.57;9.00;;;23.10;92.50;;;;;;5053857;28;20170;-69
2023/05/25 09:39:50;;;;;;;9.40;8.17;;;23.30;91.50;;;;;;5053399;28;20814;-69
2023/05/25 09:42:16;;;;;;;10.70;9.00;;;24.20;90.10;;;;;;5053783;28;20440;-70
2023/05/25 09:44:44;;;;;;;11.23;8.60;;;24.00;87.00;;;;;;5053585;28;20897;-70
2023/05/25 09:47:09;;;;;;;11.10;8.33;;;23.60;87.80;;;;;;5053710;28;20415;-70
2023/05/25 09:49:35;;;;;;;9.43;8.30;;;23.80;87.20;;;;;;5053329;28;20416;-69
2023/05/25 09:52:01;;;;;;;11.30;8.20;;;23.40;87.20;;;;;;5053370;28;20200;-69
2023/05/25 09:54:28;;;;;;;10.33;9.20;;;22.90;88.50;;;;;;5053451;28;20173;-70
2023/05/25 09:56:53;;;;;;;13.47;9.40;;;22.50;90.10;;;;;;5053226;28;20181;-70
2023/05/25 09:59:21;;;;;;;11.80;7.77;;;22.30;90.40;;;;;;5053356;28;20451;-70
2023/05/25 10:01:53;;;;;;;11.60;8.20;;;22.40;90.60;;;;;;5053453;28;20177;-71
2023/05/25 10:04:19;;;;;;;10.97;8.90;;;22.40;90.80;;;;;;5053238;28;20473;-69
2023/05/25 10:06:48;;;;;;;17.70;9.00;;;22.40;91.10;;;;;;5053052;28;20917;-69
2023/05/25 10:09:16;;;;;;;9.40;8.33;;;22.70;90.90;;;;;;5052932;28;20196;-70
2023/05/25 10:11:42;;;;;;;11.07;8.53;;;22.80;89.90;;;;;;5053445;28;20496;-70
2023/05/25 10:14:12;;;;;;;10.80;8.90;;;23.00;90.10;;;;;;5052934;28;20550;-70
2023/05/25 10:16:39;;;;;;;9.93;7.90;;;23.40;89.90;;;;;;5053014;28;20174;-70
2023/05/25 10:19:11;;;;;;;11.47;8.27;;;24.80;85.10;;;;;;5052038;28;20413;-69
2023/05/25 10:21:38;;;;;;;9.00;8.10;;;25.00;82.00;;;;;;5052993;28;20486;-68
2023/05/25 10:24:08;;;;;;;9.43;7.67;;;25.40;81.40;;;;;;5052925;28;20934;-70
2023/05/25 10:26:38;;;;;;;11.77;7.80;;;27.00;74.40;;;;;;5052955;28;20918;-69
2023/05/25 10:29:04;;;;;;;10.17;8.77;;;26.80;70.70;;;;;;5052698;28;20412;-71
2023/05/25 10:31:36;;;;;;;8.03;7.23;;;26.30;71.40;;;;;;5052861;28;20416;-70
2023/05/25 10:34:02;;;;;;;10.20;7.30;;;26.20;71.20;;;;;;5052549;28;20530;-69
2023/05/25 10:36:29;;;;;;;11.20;7.77;;;27.40;69.20;;;;;;5052610;28;20424;-69
2023/05/25 10:38:55;;;;;;;9.53;7.47;;;26.60;68.60;;;;;;5052560;28;20420;-70
2023/05/25 10:41:21;;;;;;;11.60;8.20;;;27.00;67.50;;;;;;5052620;28;20567;-70
2023/05/25 10:43:48;;;;;;;9.93;7.80;;;28.20;65.00;;;;;;5052492;28;20440;-71
2023/05/25 10:46:14;;;;;;;7.67;6.97;;;29.30;61.70;;;;;;5052324;28;20793;-70
2023/05/25 10:48:47;;;;;;;10.00;7.10;;;28.90;58.80;;;;;;5052086;28;20473;-69
2023/05/25 10:51:13;;;;;;;8.40;7.17;;;28.70;59.50;;;;;;5052778;28;20420;-69
2023/05/25 10:53:46;;;;;;;9.90;7.77;;;29.40;58.60;;;;;;5052133;28;20497;-69
2023/05/25 10:56:13;;;;;;;10.83;8.90;;;29.50;56.80;;;;;;5052151;28;20188;-69
2023/05/25 10:58:43;;;;;;;11.23;7.67;;;29.50;56.60;;;;;;5052135;28;20427;-69
2023/05/25 11:01:11;;;;;;;10.73;7.80;;;29.20;56.70;;;;;;5052262;28;20563;-69
2023/05/25 11:03:42;;;;;;;10.80;6.70;;;28.40;56.90;;;;;;5052196;28;20439;-69
2023/05/25 11:06:20;;;;;;;8.93;8.00;;;27.60;58.70;;;;;;5052253;28;20435;-69
2023/05/25 11:08:55;;;;;;;10.40;7.60;;;26.40;59.30;;;;;;5051650;28;20423;-69
2023/05/25 11:11:42;;;;;;;10.37;8.00;;;25.90;61.00;;;;;;5052066;28;20430;-69
2023/05/25 11:14:26;;;;;;;9.20;7.43;;;25.60;62.40;;;;;;5052260;28;20460;-68
2023/05/25 11:17:10;;;;;;;7.87;7.17;;;25.60;62.30;;;;;;5052150;28;20419;-69
2023/05/25 11:19:50;;;;;;;8.57;7.37;;;25.40;62.90;;;;;;5051576;28;20493;-69
2023/05/25 11:22:36;;;;;;;7.63;6.93;;;25.00;64.50;;;;;;5052020;28;21018;-69
2023/05/25 11:25:22;;;;;;;11.60;7.57;;;25.80;64.10;;;;;;5051719;28;20762;-69
2023/05/25 11:27:53;;;;;;;10.30;9.30;;;26.30;63.10;;;;;;5051871;28;20501;-69
2023/05/25 11:30:18;;;;;;;15.40;14.00;;;25.70;64.00;;;;;;5050742;28;20427;-64
2023/05/25 11:32:49;;;;;;;11.53;9.50;;;25.80;65.10;;;;;;5051638;28;20494;-64
2023/05/25 11:35:15;;;;;;;9.03;8.13;;;25.70;64.90;;;;;;5049935;28;20231;-64
2023/05/25 11:37:48;;;;;;;8.50;7.50;;;25.10;65.70;;;;;;5051277;28;20427;-64
2023/05/25 11:40:13;;;;;;;9.00;7.87;;;25.10;66.80;;;;;;5050971;28;20280;-65
2023/05/25 11:42:41;;;;;;;10.97;7.73;;;25.40;66.10;;;;;;5051373;28;20530;-65
2023/05/25 11:45:10;;;;;;;9.17;8.23;;;25.40;66.20;;;;;;5052043;28;20662;-63
2023/05/25 11:47:36;;;;;;;10.27;8.50;;;26.30;65.10;;;;;;5051712;28;20748;-64
2023/05/25 11:50:01;;;;;;;8.23;7.40;;;26.90;62.30;;;;;;5050569;28;20431;-63
2023/05/25 11:52:27;;;;;;;10.97;8.43;;;25.80;63.80;;;;;;5050282;28;20197;-66
2023/05/25 11:54:53;;;;;;;9.07;7.33;;;25.40;64.50;;;;;;5051501;28;20641;-66
2023/05/25 11:57:25;;;;;;;7.43;6.73;;;25.50;64.80;;;;;;5049317;28;20192;-67
2023/05/25 11:59:52;;;;;;;12.30;8.00;;;25.90;64.40;;;;;;5051425;28;20201;-65
2023/05/25 12:02:18;;;;;;;12.53;7.37;;;25.60;64.60;;;;;;5051439;28;20778;-65
2023/05/25 12:04:54;;;;;;;7.63;6.50;;;25.70;64.80;;;;;;5051611;28;20412;-66
2023/05/25 12:07:20;;;;;;;8.67;7.70;;;25.30;65.40;;;;;;5051561;28;20416;-66
2023/05/25 12:09:46;;;;;;;8.60;7.70;;;25.00;65.60;;;;;;5051042;28;20426;-66
2023/05/25 12:12:11;;;;;;;11.40;8.43;;;25.00;66.20;;;;;;5051257;28;20178;-65
2023/05/25 12:14:50;;;;;;;10.00;7.40;;;24.90;67.30;;;;;;5051438;28;20177;-67
2023/05/25 12:17:17;;;;;;;10.93;7.23;;;24.50;67.90;;;;;;5050633;28;20177;-66
2023/05/25 12:19:43;;;;;;;10.83;8.10;;;24.60;68.00;;;;;;5055406;28;21011;-71
2023/05/25 12:22:12;;;;;;;10.43;7.60;;;25.10;66.30;;;;;;5071146;28;20510;-71
2023/05/25 12:24:38;;;;;;;8.63;7.93;;;25.90;65.10;;;;;;5071266;28;20491;-71
2023/05/25 12:27:15;;;;;;;9.57;7.50;;;26.40;64.00;;;;;;5071409;28;20799;-71
2023/05/25 12:29:48;;;;;;;13.43;8.37;;;26.20;63.20;;;;;;5071132;28;20441;-71
2023/05/25 12:32:14;;;;;;;11.37;8.17;;;25.80;64.20;;;;;;5071244;28;20414;-71
2023/05/25 12:34:40;;;;;;;10.80;7.37;;;25.60;64.10;;;;;;5071153;28;20439;-71
2023/05/25 12:37:19;;;;;;;11.13;7.37;;;26.00;63.90;;;;;;5071230;28;20933;-71
2023/05/25 12:39:45;;;;;;;9.67;7.50;;;27.50;61.70;;;;;;5070843;28;20223;-71
2023/05/25 12:42:14;;;;;;;7.73;7.00;;;27.80;59.80;;;;;;5073398;28;20782;-71
2023/05/25 12:44:40;;;;;;;8.73;7.50;;;28.00;59.20;;;;;;5074861;28;20844;-70
2023/05/25 12:47:18;;;;;;;9.37;7.80;;;28.10;58.80;;;;;;5074711;28;20411;-71